createdAt,value
2022-11-24T00:02:16.510Z,3.18
2022-11-24T00:04:43.085Z,3.15
2022-11-24T00:07:09.401Z,3.17
2022-11-24T00:09:35.678Z,3.16
2022-11-24T00:12:02.243Z,3.16
2022-11-24T00:14:28.489Z,3.16
2022-11-24T00:16:54.760Z,3.17
2022-11-24T00:19:21.335Z,3.13
2022-11-24T00:21:47.564Z,3.15
2022-11-24T00:24:13.830Z,3.14
2022-11-24T00:26:40.346Z,3.15
2022-11-24T00:29:09.089Z,3.15
2022-11-24T00:31:37.674Z,3.14
2022-11-24T00:34:10.441Z,3.13
2022-11-24T00:36:37.174Z,3.16
2022-11-24T00:39:08.774Z,3.15
2022-11-24T00:41:35.020Z,3.16
2022-11-24T00:44:01.341Z,3.06
2022-11-24T00:46:28.541Z,3.19
2022-11-24T00:48:55.338Z,3.19
2022-11-24T00:51:24.902Z,3.18
2022-11-24T00:53:51.509Z,3.16
2022-11-24T00:56:17.772Z,3.09
2022-11-24T00:58:43.982Z,3.14
2022-11-24T01:01:14.582Z,3.13
2022-11-24T01:03:42.196Z,3.14
2022-11-24T01:06:15.121Z,3.16
2022-11-24T01:08:42.185Z,3.17
2022-11-24T01:11:26.569Z,3.15
2022-11-24T01:13:55.670Z,3.17
2022-11-24T01:16:24.693Z,3.12
2022-11-24T01:18:51.525Z,3.16
2022-11-24T01:21:18.644Z,3.18
2022-11-24T01:23:44.882Z,3.20
2022-11-24T01:26:13.610Z,3.04
2022-11-24T01:28:46.353Z,3.08
2022-11-24T01:31:13.731Z,3.20
2022-11-24T01:33:40.319Z,3.21
2022-11-24T01:36:07.354Z,3.19
2022-11-24T01:38:33.655Z,3.10
2022-11-24T01:41:21.540Z,3.17
2022-11-24T01:43:48.273Z,3.18
2022-11-24T01:46:23.091Z,3.05
2022-11-24T01:48:57.920Z,3.22
2022-11-24T01:51:27.186Z,3.23
2022-11-24T01:53:59.130Z,3.25
2022-11-24T01:56:27.121Z,3.24
2022-11-24T01:58:57.042Z,3.23
2022-11-24T02:01:23.491Z,3.21
2022-11-24T02:03:50.361Z,3.22
2022-11-24T02:06:20.989Z,3.24
2022-11-24T02:08:52.007Z,3.20
2022-11-24T02:11:19.182Z,3.21
2022-11-24T02:13:45.848Z,3.22
2022-11-24T02:16:12.531Z,3.20
2022-11-24T02:18:39.906Z,3.23
2022-11-24T02:21:06.926Z,3.22
2022-11-24T02:23:41.553Z,3.11
2022-11-24T02:26:17.364Z,3.24
2022-11-24T02:28:43.600Z,3.22
2022-11-24T02:31:10.607Z,3.22
2022-11-24T02:33:36.987Z,3.25
2022-11-24T02:36:03.399Z,3.24
2022-11-24T02:38:31.933Z,3.21
2022-11-24T02:40:59.594Z,3.04
2022-11-24T02:43:27.039Z,3.06
2022-11-24T02:45:53.588Z,3.19
2022-11-24T02:48:20.736Z,3.19
2022-11-24T02:50:46.964Z,3.19
2022-11-24T02:53:13.503Z,3.20
2022-11-24T02:55:39.735Z,3.21
2022-11-24T02:58:05.989Z,3.11
2022-11-24T03:00:32.490Z,3.22
2022-11-24T03:02:59.028Z,3.22
2022-11-24T03:05:25.266Z,3.11
2022-11-24T03:07:51.864Z,3.20
2022-11-24T03:10:18.245Z,3.20
2022-11-24T03:12:44.523Z,3.06
2022-11-24T03:15:11.484Z,3.21
2022-11-24T03:17:37.712Z,3.23
2022-11-24T03:20:05.083Z,3.21
2022-11-24T03:22:32.079Z,3.21
2022-11-24T03:24:58.558Z,3.19
2022-11-24T03:27:24.937Z,3.18
2022-11-24T03:29:51.433Z,3.19
2022-11-24T03:32:17.700Z,3.19
2022-11-24T03:34:43.926Z,3.17
2022-11-24T03:37:10.523Z,3.14
2022-11-24T03:39:36.761Z,3.15
2022-11-24T03:42:03.006Z,3.07
2022-11-24T03:44:29.570Z,2.99
2022-11-24T03:46:55.788Z,3.01
2022-11-24T03:49:22.079Z,3.09
2022-11-24T03:51:48.609Z,3.05
2022-11-24T03:54:14.882Z,3.05
2022-11-24T03:56:41.110Z,2.96
2022-11-24T03:59:07.635Z,3.00
2022-11-24T04:01:33.886Z,2.99
2022-11-24T04:04:00.454Z,2.97
2022-11-24T04:06:26.748Z,2.96
2022-11-24T04:08:52.972Z,2.95
2022-11-24T04:11:38.182Z,2.80
2022-11-24T04:14:09.115Z,2.80
2022-11-24T04:16:38.575Z,2.91
2022-11-24T04:19:05.928Z,2.89
2022-11-24T04:21:32.174Z,2.90
2022-11-24T04:23:58.690Z,2.91
2022-11-24T04:26:24.955Z,2.86
2022-11-24T04:28:51.187Z,2.88
2022-11-24T04:31:18.454Z,2.85
2022-11-24T04:33:44.802Z,2.88
2022-11-24T04:36:11.119Z,2.89
2022-11-24T04:39:24.086Z,2.86
2022-11-24T04:41:23.997Z,2.81
2022-11-24T04:43:50.653Z,2.85
2022-11-24T04:46:17.338Z,2.88
2022-11-24T04:48:43.661Z,2.78
2022-11-24T04:51:10.412Z,2.85
2022-11-24T04:53:36.706Z,2.83
2022-11-24T04:56:06.434Z,2.87
2022-11-24T04:58:33.007Z,2.75
2022-11-24T05:00:59.396Z,2.87
2022-11-24T05:03:25.612Z,2.85
2022-11-24T05:05:52.121Z,2.86
2022-11-24T05:08:18.394Z,2.84
2022-11-24T05:10:44.653Z,2.68
2022-11-24T05:13:12.706Z,2.83
2022-11-24T05:15:40.321Z,2.84
2022-11-24T05:18:07.803Z,2.75
2022-11-24T05:20:35.235Z,2.80
2022-11-24T05:23:05.624Z,2.80
2022-11-24T05:25:32.876Z,2.75
2022-11-24T05:28:01.232Z,2.77
2022-11-24T05:30:28.032Z,2.72
2022-11-24T05:32:54.331Z,2.73
2022-11-24T05:35:21.633Z,2.62
2022-11-24T05:37:48.439Z,2.76
2022-11-24T05:40:14.848Z,2.76
2022-11-24T05:42:46.653Z,2.71
2022-11-24T05:45:16.459Z,2.68
2022-11-24T05:47:43.075Z,2.69
2022-11-24T05:50:11.285Z,2.67
2022-11-24T05:52:37.869Z,2.64
2022-11-24T05:55:05.901Z,2.58
2022-11-24T05:57:32.507Z,2.64
2022-11-24T05:59:58.880Z,2.65
2022-11-24T06:02:25.625Z,2.62
2022-11-24T06:04:52.299Z,2.61
2022-11-24T06:07:18.765Z,2.62
2022-11-24T06:09:45.135Z,2.52
2022-11-24T06:12:12.667Z,2.63
2022-11-24T06:14:39.115Z,2.46
2022-11-24T06:17:05.719Z,2.51
2022-11-24T06:19:32.276Z,2.61
2022-11-24T06:21:59.464Z,2.63
2022-11-24T06:24:25.792Z,2.58
2022-11-24T06:26:52.362Z,2.56
2022-11-24T06:29:18.633Z,2.59
2022-11-24T06:31:44.943Z,2.59
2022-11-24T06:34:12.584Z,2.61
2022-11-24T06:36:39.463Z,2.56
2022-11-24T06:39:06.608Z,2.58
2022-11-24T06:41:33.501Z,2.59
2022-11-24T06:44:02.972Z,2.59
2022-11-24T06:46:29.276Z,2.50
2022-11-24T06:48:56.060Z,2.58
2022-11-24T06:51:26.481Z,2.60
2022-11-24T06:53:52.804Z,2.59
2022-11-24T06:56:20.447Z,2.52
2022-11-24T06:58:48.555Z,2.37
2022-11-24T07:01:19.849Z,2.48
2022-11-24T07:03:48.176Z,2.54
2022-11-24T07:06:15.364Z,2.56
2022-11-24T07:08:41.840Z,2.57
2022-11-24T07:11:10.806Z,2.60
2022-11-24T07:13:37.123Z,2.40
2022-11-24T07:16:23.277Z,2.63
2022-11-24T07:18:51.618Z,2.64
2022-11-24T07:21:19.624Z,2.69
2022-11-24T07:23:49.005Z,2.70
2022-11-24T07:26:15.931Z,2.69
2022-11-24T07:28:42.247Z,2.60
2022-11-24T07:31:14.322Z,2.72
2022-11-24T07:33:41.022Z,2.65
2022-11-24T07:36:08.359Z,2.69
2022-11-24T07:38:35.139Z,2.63
2022-11-24T07:41:06.846Z,2.63
2022-11-24T07:43:35.928Z,2.74
2022-11-24T07:46:04.009Z,2.77
2022-11-24T07:48:30.524Z,2.74
2022-11-24T07:50:59.949Z,2.78
2022-11-24T07:53:26.901Z,2.62
2022-11-24T07:56:03.196Z,2.79
2022-11-24T07:58:33.552Z,2.57
2022-11-24T08:01:02.992Z,2.76
2022-11-24T08:03:29.664Z,2.55
2022-11-24T08:08:44.059Z,2.69
2022-11-24T08:11:13.731Z,2.90
2022-11-24T08:13:40.574Z,3.01
2022-11-24T08:16:09.268Z,3.02
2022-11-24T08:18:36.841Z,2.97
2022-11-24T08:21:03.436Z,3.03
2022-11-24T08:23:30.492Z,2.85
2022-11-24T08:25:57.419Z,3.00
2022-11-24T08:28:23.974Z,3.11
2022-11-24T08:30:50.629Z,3.18
2022-11-24T08:33:16.968Z,2.97
2022-11-24T08:35:43.247Z,3.21
2022-11-24T08:38:09.884Z,3.25
2022-11-24T08:40:36.213Z,3.30
2022-11-24T08:43:02.617Z,3.31
2022-11-24T08:45:30.793Z,3.31
2022-11-24T08:48:00.667Z,3.26
2022-11-24T08:50:27.010Z,3.27
2022-11-24T08:52:53.986Z,3.19
2022-11-24T08:55:22.053Z,3.45
2022-11-24T08:57:48.764Z,3.46
2022-11-24T09:00:22.387Z,3.49
2022-11-24T09:02:58.566Z,3.53
2022-11-24T09:05:50.693Z,3.40
2022-11-24T09:08:12.153Z,3.44
2022-11-24T09:10:40.397Z,3.31
2022-11-24T09:13:06.932Z,3.44
2022-11-24T09:15:35.578Z,3.54
2022-11-24T09:18:04.038Z,3.51
2022-11-24T09:20:30.763Z,3.37
2022-11-24T09:22:57.091Z,3.54
2022-11-24T09:25:23.774Z,3.52
2022-11-24T09:27:50.926Z,3.49
2022-11-24T09:30:18.071Z,3.54
2022-11-24T09:32:44.698Z,3.47
2022-11-24T09:35:11.011Z,3.46
2022-11-24T09:37:37.336Z,3.34
2022-11-24T09:40:04.495Z,3.38
2022-11-24T09:42:33.492Z,3.53
2022-11-24T09:45:35.714Z,3.56
2022-11-24T09:48:29.729Z,3.57
2022-11-24T09:50:59.605Z,3.62
2022-11-24T09:53:49.392Z,3.63
2022-11-24T09:56:25.740Z,3.74
2022-11-24T09:59:05.734Z,3.84
2022-11-24T10:01:40.233Z,3.49
2022-11-24T10:04:18.616Z,3.84
2022-11-24T10:07:21.264Z,3.66
2022-11-24T10:10:11.207Z,3.76
2022-11-24T10:13:02.098Z,3.87
2022-11-24T10:15:44.128Z,3.81
2022-11-24T10:18:21.694Z,3.89
2022-11-24T10:21:14.930Z,3.88
2022-11-24T10:23:48.957Z,3.93
2022-11-24T10:26:22.516Z,3.84
2022-11-24T10:28:55.086Z,3.76
2022-11-24T10:31:36.176Z,3.79
2022-11-24T10:34:35.883Z,3.71
2022-11-24T10:37:13.482Z,3.69
2022-11-24T10:40:00.224Z,3.66
2022-11-24T10:42:39.806Z,3.69
2022-11-24T10:45:13.168Z,3.57
2022-11-24T10:47:40.954Z,3.39
2022-11-24T10:50:22.686Z,3.52
2022-11-24T10:53:00.413Z,3.52
2022-11-24T10:55:26.971Z,3.55
2022-11-24T10:57:53.588Z,3.59
2022-11-24T11:00:19.856Z,3.66
2022-11-24T11:02:52.303Z,3.68
2022-11-24T11:05:31.834Z,3.52
2022-11-24T11:08:17.512Z,3.76
2022-11-24T11:10:45.397Z,3.80
2022-11-24T11:13:30.500Z,3.71
2022-11-24T11:16:05.381Z,3.65
2022-11-24T11:18:32.911Z,3.73
2022-11-24T11:21:04.644Z,3.66
2022-11-24T11:23:36.288Z,3.62
2022-11-24T11:26:25.060Z,3.68
2022-11-24T11:34:52.863Z,3.49
2022-11-24T11:37:21.880Z,3.69
2022-11-24T11:39:53.732Z,3.59
2022-11-24T11:42:53.592Z,3.65
2022-11-24T11:45:36.205Z,3.61
2022-11-24T11:48:10.132Z,3.18
2022-11-24T11:51:21.028Z,3.65
2022-11-24T11:53:58.854Z,3.54
2022-11-24T11:56:36.893Z,3.71
2022-11-24T11:59:10.889Z,3.59
2022-11-24T12:01:58.606Z,3.66
2022-11-24T12:04:52.672Z,3.69
2022-11-24T12:07:25.094Z,3.61
2022-11-24T12:10:08.224Z,3.61
2022-11-24T12:13:14.818Z,3.60
2022-11-24T12:15:47.316Z,3.32
2022-11-24T12:18:58.902Z,3.58
2022-11-24T12:21:40.046Z,3.46
2022-11-24T12:24:28.592Z,3.25
2022-11-24T12:26:58.971Z,3.61
2022-11-24T12:30:03.227Z,3.51
2022-11-24T12:33:11.453Z,3.62
2022-11-24T12:35:50.635Z,3.63
2022-11-24T12:38:21.176Z,3.67
2022-11-24T12:41:33.519Z,3.35
2022-11-24T12:43:52.726Z,3.65
2022-11-24T12:46:44.058Z,3.59
2022-11-24T12:49:19.688Z,3.53
2022-11-24T12:51:49.680Z,3.59
2022-11-24T12:54:20.284Z,3.51
2022-11-24T12:57:13.824Z,3.50
2022-11-24T12:59:48.039Z,3.45
2022-11-24T13:02:39.659Z,3.51
2022-11-24T13:05:21.523Z,3.42
2022-11-24T13:07:50.293Z,3.43
2022-11-24T13:10:54.262Z,3.41
2022-11-24T13:13:22.533Z,3.43
2022-11-24T13:16:07.082Z,3.24
2022-11-24T13:19:01.416Z,3.40
2022-11-24T13:21:54.631Z,3.44
2022-11-24T13:24:23.615Z,3.38
2022-11-24T13:27:19.039Z,3.31
2022-11-24T13:29:47.363Z,3.29
2022-11-24T13:32:56.813Z,3.34
2022-11-24T13:35:25.181Z,3.39
2022-11-24T13:37:52.890Z,3.22
2022-11-24T13:40:22.708Z,3.06
2022-11-24T13:42:54.635Z,3.30
2022-11-24T13:45:39.508Z,3.31
2022-11-24T13:48:30.279Z,3.31
2022-11-24T13:50:57.288Z,3.31
2022-11-24T13:53:34.794Z,3.08
2022-11-24T13:56:02.946Z,2.86
2022-11-24T13:58:45.537Z,3.28
2022-11-24T14:01:14.940Z,3.27
2022-11-24T14:04:07.026Z,3.17
2022-11-24T14:06:36.930Z,3.22
2022-11-24T14:09:17.459Z,3.09
2022-11-24T14:11:44.421Z,3.11
2022-11-24T14:14:21.157Z,3.15
2022-11-24T14:16:47.521Z,3.13
2022-11-24T14:19:18.410Z,3.12
2022-11-24T14:21:45.198Z,3.09
2022-11-24T14:24:25.624Z,3.09
2022-11-24T14:26:52.324Z,3.03
2022-11-24T14:29:22.915Z,3.10
2022-11-24T14:31:53.604Z,3.09
2022-11-24T14:34:21.581Z,3.08
2022-11-24T14:36:48.784Z,3.04
2022-11-24T14:39:17.182Z,2.78
2022-11-24T14:41:51.552Z,2.98
2022-11-24T14:44:26.724Z,2.97
2022-11-24T14:47:04.408Z,2.86
2022-11-24T14:49:31.908Z,2.96
2022-11-24T14:52:02.702Z,2.86
2022-11-24T14:54:29.232Z,2.75
2022-11-24T14:56:57.671Z,2.90
2022-11-24T14:59:26.467Z,2.89
2022-11-24T15:01:52.852Z,2.88
2022-11-24T15:07:25.985Z,2.87
2022-11-24T15:09:59.763Z,2.87
2022-11-24T15:12:42.060Z,2.88
2022-11-24T15:15:14.528Z,2.88
2022-11-24T15:17:55.701Z,2.88
2022-11-24T15:20:28.157Z,2.73
2022-11-24T15:23:22.921Z,2.87
2022-11-24T15:25:54.344Z,2.86
2022-11-24T15:28:26.106Z,2.85
2022-11-24T15:30:59.730Z,2.83
2022-11-24T15:33:26.998Z,2.86
2022-11-24T15:35:53.324Z,2.85
2022-11-24T15:38:19.936Z,2.79
2022-11-24T15:40:48.101Z,2.88
2022-11-24T15:43:19.432Z,2.86
2022-11-24T15:45:45.718Z,2.86
2022-11-24T15:48:17.566Z,2.89
2022-11-24T15:50:45.241Z,2.76
2022-11-24T15:53:22.887Z,2.89
2022-11-24T15:55:50.398Z,2.86
2022-11-24T15:58:17.044Z,2.70
2022-11-24T16:00:44.002Z,2.63
2022-11-24T16:03:44.563Z,2.86
2022-11-24T16:05:57.372Z,2.87
2022-11-24T16:08:23.980Z,2.88
2022-11-24T16:10:51.268Z,2.86
2022-11-24T16:13:17.564Z,2.89
2022-11-24T16:15:45.581Z,2.88
2022-11-24T16:18:14.241Z,2.84
2022-11-24T16:20:40.595Z,2.93
2022-11-24T16:23:07.280Z,2.89
2022-11-24T16:25:33.729Z,2.98
2022-11-24T16:28:00.104Z,2.96
2022-11-24T16:30:26.702Z,2.97
2022-11-24T16:32:53.126Z,2.89
2022-11-24T16:35:20.112Z,2.95
2022-11-24T16:37:46.770Z,2.95
2022-11-24T16:40:13.351Z,2.94
2022-11-24T16:42:39.626Z,2.94
2022-11-24T16:45:06.664Z,2.94
2022-11-24T16:47:32.956Z,2.92
2022-11-24T16:49:59.209Z,2.94
2022-11-24T16:52:25.914Z,2.85
2022-11-24T16:54:52.433Z,2.95
2022-11-24T16:57:18.829Z,2.96
2022-11-24T16:59:46.220Z,2.91
2022-11-24T17:02:13.432Z,2.96
2022-11-24T17:04:39.877Z,2.85
2022-11-24T17:07:06.749Z,2.97
2022-11-24T17:09:37.401Z,2.95
2022-11-24T17:12:06.931Z,2.88
2022-11-24T17:14:33.464Z,2.92
2022-11-24T17:17:00.043Z,2.90
2022-11-24T17:19:26.688Z,2.86
2022-11-24T17:21:54.519Z,2.74
2022-11-24T17:24:20.830Z,2.81
2022-11-24T17:26:50.063Z,2.77
2022-11-24T17:29:16.371Z,2.80
2022-11-24T17:31:42.708Z,2.77
2022-11-24T17:34:11.021Z,2.60
2022-11-24T17:36:37.571Z,2.77
2022-11-24T17:39:05.355Z,2.64
2022-11-24T17:41:32.303Z,2.58
2022-11-24T17:43:58.681Z,2.67
2022-11-24T17:46:26.117Z,2.72
2022-11-24T17:48:53.068Z,2.74
2022-11-24T17:51:21.212Z,2.55
2022-11-24T17:53:49.531Z,2.60
2022-11-24T17:56:18.206Z,2.69
2022-11-24T17:58:44.934Z,2.68
2022-11-24T18:01:12.810Z,2.67
2022-11-24T18:03:40.323Z,2.58
2022-11-24T18:06:09.414Z,2.62
2022-11-24T18:08:36.866Z,2.61
2022-11-24T18:11:14.845Z,2.49
2022-11-24T18:13:56.735Z,2.58
2022-11-24T18:16:28.275Z,2.46
2022-11-24T18:19:07.411Z,2.58
2022-11-24T18:21:35.205Z,2.48
2022-11-24T18:24:01.535Z,2.58
2022-11-24T18:26:27.851Z,2.50
2022-11-24T18:28:54.486Z,2.55
2022-11-24T18:31:22.380Z,2.44
2022-11-24T18:33:48.989Z,2.54
2022-11-24T18:36:17.880Z,2.52
2022-11-24T18:38:44.313Z,2.55
2022-11-24T18:41:12.737Z,2.42
2022-11-24T18:43:39.560Z,2.57
2022-11-24T18:46:15.691Z,2.57
2022-11-24T18:48:43.952Z,2.56
2022-11-24T18:51:14.572Z,2.40
2022-11-24T18:53:42.311Z,2.48
2022-11-24T18:56:15.812Z,2.55
2022-11-24T18:58:42.900Z,2.56
2022-11-24T19:01:11.179Z,2.58
2022-11-24T19:03:43.527Z,2.61
2022-11-24T19:06:16.087Z,2.59
2022-11-24T19:08:43.144Z,2.40
2022-11-24T19:11:17.848Z,2.59
2022-11-24T19:13:44.410Z,2.59
2022-11-24T19:16:12.151Z,2.57
2022-11-24T19:18:38.811Z,2.43
2022-11-24T19:21:05.731Z,2.57
2022-11-24T19:23:32.020Z,2.39
2022-11-24T19:26:02.167Z,2.57
2022-11-24T19:28:28.757Z,2.51
2022-11-24T19:31:03.086Z,2.56
2022-11-24T19:33:30.822Z,2.49
2022-11-24T19:36:17.895Z,2.54
2022-11-24T19:38:53.210Z,2.53
2022-11-24T19:41:21.121Z,2.51
2022-11-24T19:43:48.374Z,2.50
2022-11-24T19:46:16.603Z,2.50
2022-11-24T19:48:44.647Z,2.48
2022-11-24T19:51:17.100Z,2.49
2022-11-24T19:53:43.913Z,2.48
2022-11-24T19:56:15.340Z,2.34
2022-11-24T19:58:42.071Z,2.47
2022-11-24T20:01:08.742Z,2.32
2022-11-24T20:03:36.422Z,2.45
2022-11-24T20:06:03.146Z,2.46
2022-11-24T20:08:30.771Z,2.44
2022-11-24T20:11:08.678Z,2.43
2022-11-24T20:13:36.679Z,2.45
2022-11-24T20:16:10.979Z,2.44
2022-11-24T20:18:42.315Z,2.43
2022-11-24T20:21:19.373Z,2.42
2022-11-24T20:23:50.941Z,2.26
2022-11-24T20:26:23.001Z,2.34
2022-11-24T20:28:50.706Z,2.43
2022-11-24T20:31:19.410Z,2.45
2022-11-24T20:33:46.497Z,2.42
2022-11-24T20:36:19.117Z,2.45
2022-11-24T20:38:46.333Z,2.44
2022-11-24T20:41:15.442Z,2.47
2022-11-24T20:43:42.511Z,2.37
2022-11-24T20:46:12.956Z,2.46
2022-11-24T20:48:39.821Z,2.45
2022-11-24T20:51:11.324Z,2.32
2022-11-24T20:53:38.386Z,2.45
2022-11-24T20:56:25.961Z,2.43
2022-11-24T20:58:52.877Z,2.46
2022-11-24T21:01:25.580Z,2.44
2022-11-24T21:03:56.914Z,2.48
2022-11-24T21:06:23.772Z,2.46
2022-11-24T21:08:51.085Z,2.44
2022-11-24T21:11:18.442Z,2.44
2022-11-24T21:13:46.332Z,2.41
2022-11-24T21:16:22.871Z,2.42
2022-11-24T21:18:51.216Z,2.27
2022-11-24T21:21:18.637Z,2.44
2022-11-24T21:23:47.805Z,2.42
2022-11-24T21:26:17.073Z,2.46
2022-11-24T21:28:44.996Z,2.44
2022-11-24T21:31:13.472Z,2.43
2022-11-24T21:33:45.431Z,2.45
2022-11-24T21:36:14.487Z,2.44
2022-11-24T21:38:42.624Z,2.45
2022-11-24T21:41:10.206Z,2.45
2022-11-24T21:43:36.562Z,2.30
2022-11-24T21:46:07.875Z,2.44
2022-11-24T21:48:35.175Z,2.45
2022-11-24T21:51:03.132Z,2.47
2022-11-24T21:53:31.584Z,2.41
2022-11-24T21:55:59.313Z,2.45
2022-11-24T21:58:26.081Z,2.44
2022-11-24T22:00:52.836Z,2.47
2022-11-24T22:03:20.431Z,2.49
2022-11-24T22:05:56.783Z,2.49
2022-11-24T22:08:24.550Z,2.49
2022-11-24T22:10:51.415Z,2.50
2022-11-24T22:13:18.867Z,2.48
2022-11-24T22:15:45.518Z,2.48
2022-11-24T22:18:12.326Z,2.48
2022-11-24T22:20:38.808Z,2.30
2022-11-24T22:23:05.495Z,2.41
2022-11-24T22:25:31.822Z,2.37
2022-11-24T22:27:58.379Z,2.32
2022-11-24T22:30:24.974Z,2.23
2022-11-24T22:32:51.306Z,2.29
2022-11-24T22:35:17.633Z,2.30
2022-11-24T22:37:44.217Z,2.20
2022-11-24T22:40:10.801Z,2.35
2022-11-24T22:42:37.128Z,2.35
2022-11-24T22:45:04.079Z,2.35
2022-11-24T22:47:30.376Z,2.33
2022-11-24T22:49:56.649Z,2.33
2022-11-24T22:52:23.207Z,2.28
2022-11-24T22:54:49.513Z,2.39
2022-11-24T22:57:15.764Z,2.39
2022-11-24T22:59:42.313Z,2.40
2022-11-24T23:02:08.619Z,2.41
2022-11-24T23:04:35.164Z,2.43
2022-11-24T23:07:01.966Z,2.32
2022-11-24T23:09:29.281Z,2.42
2022-11-24T23:11:55.583Z,2.42
2022-11-24T23:14:22.127Z,2.41
2022-11-24T23:16:48.479Z,2.39
2022-11-24T23:19:14.808Z,2.41
2022-11-24T23:21:41.394Z,2.38
2022-11-24T23:24:08.690Z,2.41
2022-11-24T23:26:37.185Z,2.40
2022-11-24T23:29:04.774Z,2.39
2022-11-24T23:31:31.858Z,2.40
2022-11-24T23:33:59.578Z,2.37
2022-11-24T23:36:26.847Z,2.43
2022-11-24T23:38:53.256Z,2.43
2022-11-24T23:41:24.894Z,2.31
2022-11-24T23:43:52.480Z,2.43
2022-11-24T23:46:21.530Z,2.40
2022-11-24T23:48:48.277Z,2.43
2022-11-24T23:51:20.088Z,2.40
2022-11-24T23:53:46.878Z,2.43
2022-11-24T23:56:24.495Z,2.42
2022-11-24T23:58:51.192Z,2.42
